Time;durP1;ratioP1;P1;durP2;ratioP2;P2;SDS_P1;SDS_P2;PMS_P1;PMS_P2;Temp;Humidity;BMP_temperature;BMP_pressure;BME280_temperature;BME280_humidity;BME280_pressure;Samples;Min_cycle;Max_cycle;Signal;HPM_P1;HPM_P2
2022/03/03 00:00:43;;;;;;;13.67;8.53;;;;;;;1.60;82.78;96481.25;5093485;28;20447;-36
2022/03/03 00:03:10;;;;;;;11.53;8.20;;;;;;;1.61;82.97;96471.56;5093722;28;20589;-36
2022/03/03 00:05:37;;;;;;;19.73;9.20;;;;;;;1.56;82.00;96473.97;5093409;28;20450;-36
2022/03/03 00:08:05;;;;;;;19.33;9.93;;;;;;;1.57;82.25;96473.78;5093331;28;20442;-37
2022/03/03 00:10:32;;;;;;;10.83;7.40;;;;;;;1.60;82.88;96480.44;5093295;28;20443;-37
2022/03/03 00:13:01;;;;;;;9.50;7.43;;;;;;;1.56;82.38;96459.06;5093251;28;20439;-37
2022/03/03 00:15:34;;;;;;;10.97;8.37;;;;;;;1.58;83.04;96462.28;5093500;28;20851;-36
2022/03/03 00:18:02;;;;;;;11.60;7.23;;;;;;;1.60;82.95;96468.16;5093304;28;20437;-36
2022/03/03 00:20:29;;;;;;;10.10;6.80;;;;;;;1.61;82.44;96467.19;5093258;28;20795;-36
2022/03/03 00:22:56;;;;;;;40.43;10.00;;;;;;;1.61;80.29;96472.41;5093543;28;20488;-36
2022/03/03 00:25:24;;;;;;;10.13;7.57;;;;;;;1.66;80.45;96457.94;5093187;28;20454;-36
2022/03/03 00:27:51;;;;;;;16.27;8.53;;;;;;;1.67;80.74;96465.59;5093211;28;20446;-36
2022/03/03 00:30:20;;;;;;;10.97;7.83;;;;;;;1.68;80.10;96453.31;5093092;28;20450;-37
2022/03/03 00:32:47;;;;;;;15.30;9.80;;;;;;;1.69;80.34;96454.94;5093136;28;20443;-37
2022/03/03 00:35:14;;;;;;;19.60;9.87;;;;;;;1.70;80.32;96460.00;5093385;28;20530;-36
2022/03/03 00:37:42;;;;;;;17.20;10.03;;;;;;;1.70;80.24;96453.94;5093108;28;20497;-37
2022/03/03 00:40:11;;;;;;;12.80;7.70;;;;;;;1.69;80.10;96453.13;5093377;28;20447;-38
2022/03/03 00:42:38;;;;;;;19.50;7.83;;;;;;;1.71;79.78;96445.09;5093286;28;20492;-37
2022/03/03 00:45:06;;;;;;;19.47;10.70;;;;;;;1.72;79.71;96441.47;5093011;28;20442;-37
2022/03/03 00:47:35;;;;;;;11.40;7.80;;;;;;;1.71;79.55;96435.44;5093002;28;20443;-37
2022/03/03 00:50:02;;;;;;;12.80;8.27;;;;;;;1.73;80.06;96437.88;5093600;28;20454;-36
2022/03/03 00:52:30;;;;;;;13.87;7.53;;;;;;;1.71;79.96;96437.25;5093033;28;20789;-36
2022/03/03 00:54:57;;;;;;;12.33;7.50;;;;;;;1.70;79.75;96443.47;5093230;28;20579;-36
2022/03/03 00:57:24;;;;;;;12.03;6.40;;;;;;;1.69;79.87;96434.00;5093254;28;20443;-37
2022/03/03 00:59:52;;;;;;;12.73;7.23;;;;;;;1.64;80.77;96445.84;5096118;28;20443;-37
2022/03/03 01:02:19;;;;;;;9.17;6.30;;;;;;;1.60;81.09;96444.59;5096885;28;20465;-37
2022/03/03 01:04:48;;;;;;;14.23;7.70;;;;;;;1.65;81.85;96441.41;5096837;28;20449;-37
2022/03/03 01:07:15;;;;;;;15.60;6.57;;;;;;;1.68;81.91;96441.06;5096506;28;20443;-37
2022/03/03 01:09:42;;;;;;;13.10;8.47;;;;;;;1.63;82.50;96444.25;5096438;28;20439;-37
2022/03/03 01:12:10;;;;;;;20.00;9.13;;;;;;;1.63;83.01;96441.63;5097177;28;20447;-36
2022/03/03 01:14:37;;;;;;;11.90;6.93;;;;;;;1.59;83.36;96450.84;5096322;28;20540;-39
2022/03/03 01:17:05;;;;;;;13.87;8.07;;;;;;;1.56;83.43;96442.56;5097070;28;20446;-37
2022/03/03 01:19:32;;;;;;;9.67;6.63;;;;;;;1.58;83.31;96438.75;5096546;28;20446;-36
2022/03/03 01:22:01;;;;;;;11.37;7.97;;;;;;;1.46;83.43;96427.16;5096187;28;20439;-37
2022/03/03 01:24:28;;;;;;;11.13;8.50;;;;;;;1.54;83.81;96444.56;5096110;28;20442;-37
2022/03/03 01:26:55;;;;;;;13.20;7.70;;;;;;;1.61;83.74;96441.00;5096447;28;20447;-38
2022/03/03 01:29:22;;;;;;;13.63;7.33;;;;;;;1.57;83.73;96437.16;5095992;28;20451;-37
2022/03/03 01:31:49;;;;;;;10.80;8.30;;;;;;;1.57;83.62;96433.69;5096001;28;20443;-38
2022/03/03 01:34:18;;;;;;;12.07;7.33;;;;;;;1.52;83.85;96431.66;5095909;28;20442;-36
2022/03/03 01:36:45;;;;;;;17.10;7.53;;;;;;;1.50;83.89;96423.16;5096672;28;20439;-37
2022/03/03 01:39:14;;;;;;;11.00;7.20;;;;;;;1.52;83.83;96426.41;5095869;28;20443;-37
2022/03/03 01:41:41;;;;;;;17.50;7.13;;;;;;;1.47;83.73;96407.88;5095781;28;20450;-37
2022/03/03 01:44:09;;;;;;;9.40;6.20;;;;;;;1.39;84.11;96392.28;5096044;28;20450;-37
2022/03/03 01:46:37;;;;;;;13.53;7.70;;;;;;;1.59;83.69;96419.44;5095938;28;20796;-38
2022/03/03 01:49:04;;;;;;;13.80;8.67;;;;;;;1.53;83.21;96412.34;5095925;28;20434;-37
2022/03/03 01:51:31;;;;;;;15.27;9.37;;;;;;;1.58;82.56;96430.91;5095504;28;20471;-37
2022/03/03 01:53:58;;;;;;;20.90;8.00;;;;;;;1.62;82.75;96426.09;5095852;28;20435;-38
2022/03/03 01:56:27;;;;;;;10.33;7.70;;;;;;;1.62;82.04;96426.91;5095427;28;20486;-37
2022/03/03 01:58:55;;;;;;;16.10;8.60;;;;;;;1.61;82.58;96425.31;5095726;28;20513;-36
2022/03/03 02:01:22;;;;;;;12.80;7.73;;;;;;;1.62;82.63;96424.28;5095412;28;20439;-37
2022/03/03 02:03:49;;;;;;;15.83;8.40;;;;;;;1.66;82.21;96432.59;5095384;28;20435;-37
2022/03/03 02:06:16;;;;;;;12.17;7.53;;;;;;;1.68;82.25;96425.34;5095328;28;20496;-38
2022/03/03 02:08:44;;;;;;;14.67;7.43;;;;;;;1.69;82.05;96415.69;5095285;28;20454;-37
2022/03/03 02:11:12;;;;;;;22.10;8.17;;;;;;;1.71;82.13;96424.16;5095234;28;20526;-37
2022/03/03 02:13:41;;;;;;;10.30;7.27;;;;;;;1.73;82.18;96422.16;5095102;28;20803;-37
2022/03/03 02:16:09;;;;;;;16.23;8.60;;;;;;;1.74;82.33;96419.38;5095274;28;20495;-37
2022/03/03 02:18:40;;;;;;;15.30;7.57;;;;;;;1.72;82.21;96431.00;5095103;28;20474;-36
2022/03/03 02:21:12;;;;;;;12.07;8.43;;;;;;;1.76;82.45;96427.00;5094987;28;20450;-36
2022/03/03 02:23:39;;;;;;;14.97;8.50;;;;;;;1.74;82.09;96418.53;5095060;28;20830;-37
2022/03/03 02:26:08;;;;;;;19.50;9.17;;;;;;;1.72;82.18;96417.91;5094917;28;20833;-36
2022/03/03 02:28:35;;;;;;;11.40;7.43;;;;;;;1.72;81.98;96412.69;5094905;28;20443;-36
2022/03/03 02:31:03;;;;;;;18.93;8.40;;;;;;;1.78;82.53;96419.78;5094920;28;20446;-37
2022/03/03 02:33:30;;;;;;;17.23;9.50;;;;;;;1.78;82.39;96414.53;5094781;28;20500;-36
2022/03/03 02:35:57;;;;;;;19.43;9.70;;;;;;;1.79;82.56;96426.66;5094974;28;20699;-35
2022/03/03 02:38:26;;;;;;;11.83;8.20;;;;;;;1.79;82.50;96416.19;5094653;28;20790;-37
2022/03/03 02:40:53;;;;;;;14.07;8.00;;;;;;;1.81;82.53;96414.19;5095506;28;20449;-36
2022/03/03 02:43:21;;;;;;;22.20;9.70;;;;;;;1.84;82.44;96413.78;5094961;28;20529;-36
2022/03/03 02:45:48;;;;;;;26.90;11.23;;;;;;;1.79;82.88;96410.94;5094498;28;20447;-35
2022/03/03 02:48:15;;;;;;;20.63;11.17;;;;;;;1.81;82.49;96414.19;5095454;28;20443;-35
2022/03/03 02:50:42;;;;;;;25.87;11.07;;;;;;;1.80;83.02;96402.88;5094445;28;20830;-35
2022/03/03 02:53:09;;;;;;;21.07;10.80;;;;;;;1.79;83.08;96413.56;5094367;28;20439;-35
2022/03/03 02:55:38;;;;;;;21.20;9.37;;;;;;;1.78;82.83;96409.31;5094354;28;20491;-35
2022/03/03 02:58:06;;;;;;;21.50;9.80;;;;;;;1.80;83.33;96407.31;5094353;28;20453;-36
2022/03/03 03:00:39;;;;;;;16.20;8.00;;;;;;;1.81;83.66;96411.56;5094291;28;20443;-36
2022/03/03 03:03:06;;;;;;;14.60;8.73;;;;;;;1.82;83.72;96410.56;5094299;28;20446;-35
2022/03/03 03:05:33;;;;;;;27.97;11.73;;;;;;;1.83;83.87;96406.94;5094184;28;20534;-35
2022/03/03 03:08:01;;;;;;;17.70;10.50;;;;;;;1.84;84.02;96419.81;5094475;28;20447;-35
2022/03/03 03:10:28;;;;;;;25.73;12.17;;;;;;;1.84;84.36;96419.81;5094133;28;20439;-36
2022/03/03 03:12:57;;;;;;;17.10;8.67;;;;;;;1.84;84.68;96413.78;5094084;28;20439;-36
2022/03/03 03:15:24;;;;;;;23.73;12.87;;;;;;;1.84;84.70;96398.09;5094273;28;20489;-35
2022/03/03 03:17:52;;;;;;;18.13;10.47;;;;;;;1.85;84.87;96402.34;5094031;28;20443;-36
2022/03/03 03:20:20;;;;;;;25.80;12.00;;;;;;;1.83;85.25;96399.91;5093867;28;20453;-36
2022/03/03 03:22:49;;;;;;;29.03;12.30;;;;;;;1.74;85.09;96390.56;5093904;28;20451;-36
2022/03/03 03:25:16;;;;;;;29.60;13.30;;;;;;;1.78;85.61;96404.06;5093834;28;20525;-35
2022/03/03 03:27:45;;;;;;;19.23;9.70;;;;;;;1.82;84.93;96406.13;5094144;28;20443;-36
2022/03/03 03:30:14;;;;;;;22.10;10.60;;;;;;;1.80;84.14;96402.06;5093840;28;20526;-35
2022/03/03 03:32:41;;;;;;;21.80;10.30;;;;;;;1.79;84.27;96403.88;5093702;28;20443;-36
2022/03/03 03:35:10;;;;;;;21.67;10.67;;;;;;;1.77;84.28;96402.47;5093608;28;20486;-36
2022/03/03 03:37:38;;;;;;;25.27;11.90;;;;;;;1.76;84.73;96411.31;5093662;28;20807;-36
2022/03/03 03:40:07;;;;;;;28.33;12.20;;;;;;;1.71;84.77;96414.50;5093783;28;20522;-36
2022/03/03 03:42:35;;;;;;;30.20;13.43;;;;;;;1.74;85.04;96406.28;5092376;28;20443;-37
2022/03/03 03:45:02;;;;;;;28.87;12.03;;;;;;;1.77;84.74;96407.72;5093573;28;20526;-36
2022/03/03 03:47:31;;;;;;;18.90;11.80;;;;;;;1.76;84.66;96409.50;5093876;28;20446;-36
2022/03/03 03:50:02;;;;;;;22.97;10.20;;;;;;;1.76;84.51;96406.88;5093299;28;20439;-36
2022/03/03 03:52:29;;;;;;;15.70;9.20;;;;;;;1.80;84.14;96394.22;5093538;28;20462;-35
2022/03/03 03:54:56;;;;;;;15.00;10.30;;;;;;;1.81;84.12;96407.13;5093747;28;20446;-36
2022/03/03 03:57:23;;;;;;;18.30;10.53;;;;;;;1.85;83.90;96399.72;5093464;28;20488;-35
2022/03/03 03:59:51;;;;;;;28.00;12.60;;;;;;;1.83;82.68;96386.81;5093404;28;20443;-36
2022/03/03 04:02:18;;;;;;;37.80;15.50;;;;;;;1.91;83.27;96404.16;5094148;28;20940;-36
2022/03/03 04:04:47;;;;;;;57.17;18.27;;;;;;;1.90;82.58;96407.78;5093384;28;20442;-36
2022/03/03 04:07:14;;;;;;;41.20;16.20;;;;;;;1.91;82.83;96400.75;5093407;28;20937;-35
2022/03/03 04:09:41;;;;;;;19.83;9.33;;;;;;;1.86;82.75;96396.09;5093331;28;20454;-35
2022/03/03 04:12:10;;;;;;;11.70;8.07;;;;;;;1.95;82.64;96405.41;5093303;28;20812;-36
2022/03/03 04:14:38;;;;;;;62.47;24.13;;;;;;;1.93;82.05;96402.16;5093306;28;20803;-36
2022/03/03 04:17:06;;;;;;;23.60;10.67;;;;;;;1.94;82.40;96410.84;5093187;28;20490;-36
2022/03/03 04:19:33;;;;;;;16.93;10.47;;;;;;;1.94;82.60;96409.03;5093223;28;20450;-36
2022/03/03 04:22:02;;;;;;;29.27;10.20;;;;;;;1.95;82.41;96404.59;5093604;28;20439;-35
2022/03/03 04:24:30;;;;;;;76.20;26.73;;;;;;;1.86;82.35;96385.63;5093191;28;20467;-36
2022/03/03 04:26:57;;;;;;;36.63;15.37;;;;;;;1.93;82.86;96407.41;5093223;28;20442;-36
2022/03/03 04:29:25;;;;;;;27.27;15.07;;;;;;;1.95;83.18;96405.41;5093194;28;20450;-36
2022/03/03 04:31:53;;;;;;;38.67;14.60;;;;;;;1.96;83.26;96396.56;5093274;28;20944;-35
2022/03/03 04:34:21;;;;;;;47.67;18.10;;;;;;;1.90;82.89;96386.84;5095729;28;20530;-36
2022/03/03 04:36:48;;;;;;;32.50;13.87;;;;;;;1.97;82.93;96387.69;5096980;28;20497;-36
2022/03/03 04:39:17;;;;;;;67.53;26.10;;;;;;;1.98;83.08;96389.31;5097039;28;20446;-37
2022/03/03 04:41:44;;;;;;;31.87;12.63;;;;;;;1.96;83.34;96393.16;5096939;28;20451;-36
2022/03/03 04:44:12;;;;;;;50.63;22.03;;;;;;;1.99;83.06;96383.06;5097210;28;20841;-36
2022/03/03 04:46:39;;;;;;;27.10;11.93;;;;;;;1.98;82.91;96393.72;5096825;28;20954;-36
2022/03/03 04:49:07;;;;;;;15.43;9.47;;;;;;;1.94;83.18;96393.31;5097087;28;20814;-36
2022/03/03 04:51:36;;;;;;;18.30;10.10;;;;;;;1.97;83.07;96392.94;5097097;28;20470;-37
2022/03/03 04:54:05;;;;;;;25.93;11.13;;;;;;;1.98;83.05;96378.84;5096742;28;20526;-36
2022/03/03 04:56:34;;;;;;;17.00;9.50;;;;;;;1.99;82.79;96380.47;5096633;28;20494;-36
2022/03/03 04:59:01;;;;;;;25.30;10.83;;;;;;;2.03;82.96;96388.75;5096604;28;20812;-36
2022/03/03 05:01:29;;;;;;;22.63;9.97;;;;;;;2.04;82.70;96383.31;5096649;28;20445;-36
2022/03/03 05:03:56;;;;;;;33.47;13.30;;;;;;;2.08;82.72;96375.06;5096912;28;20804;-37
2022/03/03 05:06:23;;;;;;;15.83;8.60;;;;;;;2.08;82.00;96382.94;5096488;28;20446;-36
2022/03/03 05:08:51;;;;;;;15.40;8.60;;;;;;;2.05;82.10;96373.66;5096476;28;20451;-37
2022/03/03 05:11:19;;;;;;;15.17;8.43;;;;;;;2.03;82.23;96371.22;5096417;28;20442;-37
2022/03/03 05:13:48;;;;;;;18.20;7.47;;;;;;;2.02;82.25;96367.00;5096393;28;20445;-36
2022/03/03 05:16:16;;;;;;;11.80;7.83;;;;;;;2.00;82.38;96358.53;5096210;28;20490;-36
2022/03/03 05:18:43;;;;;;;13.77;8.63;;;;;;;2.03;82.92;96371.22;5096517;28;20446;-37
2022/03/03 05:21:11;;;;;;;17.73;8.77;;;;;;;2.02;82.17;96380.09;5096173;28;20445;-37
2022/03/03 05:23:38;;;;;;;12.33;7.40;;;;;;;1.91;82.46;96362.28;5096145;28;20443;-37
2022/03/03 05:26:05;;;;;;;22.40;9.03;;;;;;;2.08;82.86;96385.53;5096478;28;20453;-36
2022/03/03 05:28:33;;;;;;;21.70;10.00;;;;;;;2.01;82.82;96381.06;5096395;28;20469;-36
2022/03/03 05:31:01;;;;;;;29.47;11.10;;;;;;;2.09;83.40;96382.75;5096064;28;20451;-36
2022/03/03 05:33:29;;;;;;;20.50;11.33;;;;;;;2.07;82.53;96370.84;5095919;28;20443;-37
2022/03/03 05:35:59;;;;;;;22.60;10.90;;;;;;;2.08;82.64;96383.72;5096147;28;20505;-36
2022/03/03 05:38:31;;;;;;;26.17;12.13;;;;;;;2.11;82.58;96377.28;5096222;28;20428;-37
2022/03/03 05:40:59;;;;;;;27.37;17.50;;;;;;;2.11;82.57;96366.81;5095541;28;20479;-37
2022/03/03 05:43:27;;;;;;;51.10;21.20;;;;;;;2.08;82.84;96354.13;5095995;28;20492;-37
2022/03/03 05:45:56;;;;;;;32.57;14.67;;;;;;;2.16;82.88;96367.06;5095300;28;20443;-36
2022/03/03 05:48:26;;;;;;;53.63;28.30;;;;;;;2.08;82.92;96362.78;5095965;28;20450;-36
2022/03/03 05:50:54;;;;;;;40.27;20.50;;;;;;;2.16;83.09;96364.44;5095395;28;20481;-37
2022/03/03 05:53:22;;;;;;;45.37;26.70;;;;;;;2.01;82.97;96331.31;5095591;28;20447;-36
2022/03/03 05:55:51;;;;;;;19.17;12.40;;;;;;;2.16;82.78;96365.25;5087097;28;20490;-37
2022/03/03 05:58:21;;;;;;;25.43;11.90;;;;;;;2.21;82.75;96357.59;5074989;28;20444;-36
2022/03/03 06:00:50;;;;;;;29.93;14.47;;;;;;;2.18;82.56;96365.84;5075434;28;20448;-36
2022/03/03 06:03:19;;;;;;;29.47;13.87;;;;;;;2.22;82.48;96364.47;5075418;28;20447;-37
2022/03/03 06:05:51;;;;;;;38.93;14.60;;;;;;;2.27;82.17;96374.38;5074971;28;20530;-36
2022/03/03 06:08:23;;;;;;;35.80;13.63;;;;;;;2.31;81.95;96366.94;5075399;28;20450;-37
2022/03/03 06:10:52;;;;;;;38.27;14.70;;;;;;;2.28;82.15;96370.75;5074966;28;20919;-36
2022/03/03 06:13:23;;;;;;;43.00;14.33;;;;;;;2.30;82.44;96384.44;5074931;28;20455;-37
2022/03/03 06:15:51;;;;;;;64.40;21.37;;;;;;;2.21;82.49;96349.75;5075135;28;20421;-36
2022/03/03 06:18:21;;;;;;;41.17;15.70;;;;;;;2.43;82.33;96375.84;5074802;28;20444;-37
2022/03/03 06:20:51;;;;;;;34.77;14.00;;;;;;;2.46;81.86;96391.19;5074711;28;20444;-36
2022/03/03 06:23:19;;;;;;;33.90;14.37;;;;;;;2.53;81.79;96380.75;5074717;28;20964;-37
2022/03/03 06:25:47;;;;;;;24.70;11.37;;;;;;;2.56;82.42;96375.94;5074905;28;20457;-37
2022/03/03 06:28:14;;;;;;;43.73;18.30;;;;;;;2.58;82.09;96378.31;5074555;28;20439;-37
2022/03/03 06:30:41;;;;;;;63.07;16.77;;;;;;;2.68;81.95;96384.03;5074828;28;20444;-37
2022/03/03 06:33:09;;;;;;;65.30;21.40;;;;;;;2.70;81.10;96376.75;5074556;28;20443;-36
2022/03/03 06:35:37;;;;;;;64.53;20.20;;;;;;;2.72;80.52;96382.63;5074373;28;20453;-37
2022/03/03 06:38:08;;;;;;;20.63;9.60;;;;;;;2.77;81.16;96377.59;5074431;28;20534;-36
2022/03/03 06:40:36;;;;;;;21.30;11.00;;;;;;;2.85;81.34;96390.53;5074309;28;20448;-37
2022/03/03 06:43:04;;;;;;;28.03;11.67;;;;;;;2.90;80.52;96381.25;5074615;28;20452;-37
2022/03/03 06:45:32;;;;;;;27.83;14.50;;;;;;;2.94;79.11;96378.03;5082966;28;20447;-37
2022/03/03 06:48:04;;;;;;;24.83;14.17;;;;;;;2.97;79.51;96379.47;5094616;28;20445;-36
2022/03/03 06:50:31;;;;;;;16.77;9.23;;;;;;;3.00;79.01;96372.00;5094241;28;20479;-37
2022/03/03 06:52:59;;;;;;;21.30;12.53;;;;;;;3.03;79.21;96383.91;5094491;28;20441;-38
2022/03/03 06:55:28;;;;;;;31.60;15.90;;;;;;;3.13;79.35;96381.72;5094055;28;20461;-37
2022/03/03 06:57:57;;;;;;;31.53;14.77;;;;;;;3.20;78.39;96384.34;5093959;28;20490;-37
2022/03/03 07:00:26;;;;;;;30.77;14.93;;;;;;;3.28;78.26;96384.97;5094279;28;20453;-37
2022/03/03 07:02:54;;;;;;;23.00;11.70;;;;;;;3.24;77.84;96375.88;5094137;28;20443;-37
2022/03/03 07:05:22;;;;;;;23.53;12.07;;;;;;;3.28;77.05;96384.97;5094266;28;20482;-37
2022/03/03 07:07:52;;;;;;;20.10;12.20;;;;;;;3.25;77.00;96374.88;5094214;28;20447;-37
2022/03/03 07:10:25;;;;;;;18.70;11.30;;;;;;;3.27;77.33;96387.81;5094183;28;20497;-36
2022/03/03 07:12:55;;;;;;;34.67;17.07;;;;;;;3.28;77.20;96386.78;5094024;28;20860;-37
2022/03/03 07:15:23;;;;;;;32.03;15.23;;;;;;;3.37;76.35;96387.41;5094293;28;20450;-37
2022/03/03 07:17:53;;;;;;;29.13;14.87;;;;;;;3.39;76.53;96396.69;5094243;28;20490;-37
2022/03/03 07:20:28;;;;;;;47.57;21.20;;;;;;;3.45;76.67;96395.09;5093976;28;20514;-37
2022/03/03 07:23:04;;;;;;;42.77;19.93;;;;;;;3.51;76.57;96396.91;5094120;28;20438;-37
2022/03/03 07:25:40;;;;;;;42.93;18.73;;;;;;;3.57;76.61;96408.41;5094271;28;20445;-37
2022/03/03 07:28:10;;;;;;;37.27;19.90;;;;;;;3.59;75.56;96399.34;5094086;28;20485;-37
2022/03/03 07:30:41;;;;;;;63.23;21.83;;;;;;;3.63;75.49;96395.28;5093959;28;20431;-37
2022/03/03 07:33:13;;;;;;;43.33;18.63;;;;;;;3.68;73.85;96400.75;5094110;28;20431;-37
2022/03/03 07:35:43;;;;;;;38.57;18.30;;;;;;;3.64;75.11;96402.16;5093860;28;20556;-37
2022/03/03 07:38:14;;;;;;;37.23;17.43;;;;;;;3.65;74.95;96401.16;5093613;28;20536;-38
2022/03/03 07:40:42;;;;;;;30.80;18.83;;;;;;;3.65;75.24;96409.03;5093949;28;20439;-37
2022/03/03 07:43:11;;;;;;;38.90;17.87;;;;;;;3.72;75.35;96410.84;5093704;28;20447;-36
2022/03/03 07:45:39;;;;;;;31.03;15.17;;;;;;;3.73;73.92;96420.34;5093968;28;20546;-37
2022/03/03 07:48:06;;;;;;;29.80;14.93;;;;;;;3.71;74.81;96414.50;5093938;28;20507;-37
2022/03/03 07:50:39;;;;;;;27.67;13.10;;;;;;;3.79;75.56;96417.72;5093535;28;20486;-36
2022/03/03 07:53:10;;;;;;;23.40;13.50;;;;;;;3.92;74.98;96410.84;5093529;28;20846;-37
2022/03/03 07:55:43;;;;;;;27.00;14.53;;;;;;;4.03;74.47;96421.53;5093782;28;20459;-37
2022/03/03 07:58:14;;;;;;;26.43;14.53;;;;;;;4.12;73.76;96423.97;5093809;28;20478;-36
2022/03/03 08:00:47;;;;;;;31.17;13.13;;;;;;;4.19;73.65;96417.66;5093502;28;20463;-37
2022/03/03 08:03:19;;;;;;;33.00;13.50;;;;;;;4.18;72.33;96416.06;5093404;28;20423;-36
2022/03/03 08:05:49;;;;;;;30.63;15.07;;;;;;;4.23;73.77;96418.06;5093434;28;20484;-37
2022/03/03 08:08:21;;;;;;;34.93;16.50;;;;;;;4.28;72.67;96410.38;5096064;28;20445;-36
2022/03/03 08:10:51;;;;;;;27.37;11.73;;;;;;;4.31;72.68;96415.25;5097625;28;20790;-37
2022/03/03 08:13:19;;;;;;;35.87;18.40;;;;;;;4.39;71.71;96414.19;5097819;28;20447;-37
2022/03/03 08:15:47;;;;;;;32.07;14.83;;;;;;;4.53;72.48;96422.88;5097468;28;20443;-36
2022/03/03 08:18:15;;;;;;;36.73;17.47;;;;;;;4.64;71.97;96422.22;5097385;28;20491;-37
2022/03/03 08:20:42;;;;;;;45.60;23.30;;;;;;;4.68;71.25;96405.00;5097601;28;20539;-37
2022/03/03 08:23:09;;;;;;;38.30;20.87;;;;;;;4.72;70.77;96414.09;5097368;28;20435;-37
2022/03/03 08:25:37;;;;;;;34.83;19.37;;;;;;;4.82;70.84;96408.38;5097334;28;20448;-37
2022/03/03 08:28:06;;;;;;;58.67;26.30;;;;;;;4.73;70.96;96394.66;5097235;28;20446;-39
2022/03/03 08:30:35;;;;;;;42.63;16.43;;;;;;;4.82;70.08;96392.59;5097135;28;20462;-37
2022/03/03 08:33:08;;;;;;;58.10;22.37;;;;;;;4.76;69.28;96407.41;5097509;28;20446;-36
2022/03/03 08:35:39;;;;;;;39.60;15.80;;;;;;;4.89;69.44;96409.97;5097105;28;20426;-37
2022/03/03 08:38:08;;;;;;;28.47;16.70;;;;;;;5.28;69.97;96408.16;5097758;28;20481;-37
2022/03/03 08:40:37;;;;;;;65.07;25.43;;;;;;;5.69;69.43;96396.31;5097229;28;20824;-37
2022/03/03 08:43:06;;;;;;;40.37;17.30;;;;;;;5.85;67.48;96404.72;5096863;28;20443;-37
2022/03/03 08:45:36;;;;;;;25.50;11.47;;;;;;;5.75;67.07;96402.56;5091049;28;20440;-37
2022/03/03 08:48:08;;;;;;;38.00;18.27;;;;;;;5.47;67.23;96387.19;5076215;28;20454;-38
2022/03/03 08:50:41;;;;;;;54.00;21.40;;;;;;;5.59;66.46;96411.78;5076509;28;20880;-37
2022/03/03 08:53:11;;;;;;;44.20;19.30;;;;;;;5.58;67.09;96397.03;5076387;28;20450;-37
2022/03/03 08:55:39;;;;;;;35.93;18.97;;;;;;;5.82;67.33;96415.69;5076290;28;20486;-37
2022/03/03 08:58:08;;;;;;;30.47;14.17;;;;;;;6.12;66.31;96411.41;5076549;28;20579;-38
2022/03/03 09:00:37;;;;;;;29.50;13.53;;;;;;;6.44;66.06;96416.56;5076338;28;20443;-38
2022/03/03 09:03:05;;;;;;;31.37;14.60;;;;;;;6.63;63.33;96408.66;5076220;28;20535;-38
2022/03/03 09:05:32;;;;;;;27.83;13.57;;;;;;;6.67;63.22;96413.28;5076554;28;20451;-38
2022/03/03 09:07:59;;;;;;;26.80;14.30;;;;;;;6.83;63.41;96417.16;5076475;28;20444;-37
2022/03/03 09:10:27;;;;;;;24.93;13.13;;;;;;;6.92;63.82;96407.88;5076129;28;20440;-38
2022/03/03 09:12:54;;;;;;;34.27;16.27;;;;;;;7.04;63.88;96412.44;5076025;28;20444;-38
2022/03/03 09:15:21;;;;;;;23.33;12.07;;;;;;;6.89;63.75;96416.25;5076374;28;20443;-38
2022/03/03 09:17:50;;;;;;;27.63;14.10;;;;;;;6.68;64.07;96406.16;5075917;28;20487;-37
2022/03/03 09:20:17;;;;;;;27.03;14.23;;;;;;;6.82;64.17;96412.91;5075127;28;20955;-37
2022/03/03 09:22:46;;;;;;;32.07;15.70;;;;;;;6.81;63.56;96424.47;5075928;28;20439;-37
2022/03/03 09:25:14;;;;;;;50.23;20.90;;;;;;;6.91;63.25;96398.38;5075753;28;20489;-37
2022/03/03 09:27:42;;;;;;;40.67;19.53;;;;;;;7.03;63.19;96416.09;5076176;28;20448;-38
2022/03/03 09:30:11;;;;;;;24.03;12.30;;;;;;;7.14;62.98;96423.25;5076038;28;20448;-38
2022/03/03 09:32:38;;;;;;;40.53;18.07;;;;;;;7.30;63.26;96409.44;5076056;28;20440;-38
2022/03/03 09:35:09;;;;;;;40.20;16.93;;;;;;;7.63;62.82;96418.69;5075639;28;20939;-38
2022/03/03 09:37:36;;;;;;;24.03;14.43;;;;;;;7.80;60.75;96422.28;5075972;28;20475;-38
2022/03/03 09:40:05;;;;;;;44.87;14.13;;;;;;;7.85;60.05;96429.56;5075566;28;20444;-38
2022/03/03 09:42:34;;;;;;;36.40;15.37;;;;;;;8.05;59.67;96421.31;5075492;28;20444;-38
2022/03/03 09:45:01;;;;;;;29.10;15.40;;;;;;;7.90;59.51;96426.25;5075810;28;20458;-37
2022/03/03 09:47:29;;;;;;;25.87;14.27;;;;;;;7.82;60.04;96416.00;5075446;28;20452;-37
2022/03/03 09:49:56;;;;;;;27.93;13.27;;;;;;;7.84;59.25;96417.38;5075524;28;20458;-38
2022/03/03 09:52:25;;;;;;;27.73;14.43;;;;;;;7.68;61.71;96418.84;5075392;28;20910;-37
2022/03/03 09:54:55;;;;;;;51.93;18.97;;;;;;;7.67;60.44;96411.13;5075238;28;20940;-37
2022/03/03 09:57:24;;;;;;;40.23;17.70;;;;;;;7.58;61.29;96418.59;5075214;28;20468;-38
2022/03/03 09:59:52;;;;;;;31.27;15.10;;;;;;;7.30;62.18;96412.06;5075486;28;20447;-37
2022/03/03 10:02:19;;;;;;;24.33;13.80;;;;;;;7.00;62.56;96411.28;5075141;28;20440;-37
2022/03/03 10:04:47;;;;;;;32.93;15.27;;;;;;;7.00;63.84;96411.28;5075449;28;20451;-38
2022/03/03 10:07:14;;;;;;;43.20;16.20;;;;;;;6.91;63.97;96403.66;5075356;28;20531;-37
2022/03/03 10:10:02;;;;;;;29.57;14.20;;;;;;;6.84;64.39;96408.22;5075056;28;20523;-37
2022/03/03 10:12:47;;;;;;;27.73;14.20;;;;;;;6.55;64.09;96404.47;5075391;28;20472;-38
2022/03/03 10:15:15;;;;;;;29.47;13.80;;;;;;;6.41;64.12;96398.56;5074946;28;20789;-38
2022/03/03 10:17:42;;;;;;;47.53;18.20;;;;;;;6.44;65.56;96399.94;5074817;28;20498;-38
2022/03/03 10:20:10;;;;;;;33.83;14.27;;;;;;;6.44;66.08;96395.47;5074757;28;20444;-37
2022/03/03 10:22:46;;;;;;;32.83;14.80;;;;;;;6.30;65.19;96400.09;5074783;28;20458;-38
2022/03/03 10:25:29;;;;;;;16.27;10.83;;;;;;;6.28;66.01;96388.13;5074931;28;20442;-37
2022/03/03 10:27:56;;;;;;;19.80;12.00;;;;;;;6.31;66.07;96406.16;5074998;28;20503;-37
2022/03/03 10:30:24;;;;;;;22.20;12.37;;;;;;;6.18;66.24;96398.38;5073889;28;20810;-37
2022/03/03 10:32:51;;;;;;;20.70;11.23;;;;;;;6.14;66.83;96393.53;5092567;28;20520;-37
2022/03/03 10:35:19;;;;;;;17.40;11.33;;;;;;;6.21;67.82;96400.56;5094836;28;20447;-37
2022/03/03 10:37:48;;;;;;;17.53;10.37;;;;;;;6.18;66.29;96387.84;5094715;28;20486;-38
2022/03/03 10:40:19;;;;;;;13.27;11.43;;;;;;;6.12;67.10;96400.84;5094686;28;20926;-37
2022/03/03 10:42:50;;;;;;;17.30;10.83;;;;;;;6.05;67.21;96389.56;5095101;28;20435;-37
2022/03/03 10:45:21;;;;;;;20.07;10.03;;;;;;;5.91;67.06;96388.03;5095069;28;20458;-37
2022/03/03 10:48:00;;;;;;;25.97;13.03;;;;;;;5.73;67.62;96376.44;5094581;28;20911;-38
2022/03/03 10:50:27;;;;;;;22.20;11.63;;;;;;;5.80;68.27;96392.19;5094285;28;20477;-38
2022/03/03 10:52:55;;;;;;;21.57;11.70;;;;;;;5.83;68.55;96391.78;5094398;28;20447;-38
2022/03/03 10:55:24;;;;;;;24.33;11.40;;;;;;;5.78;67.59;96382.88;5094755;28;20443;-38
2022/03/03 10:57:56;;;;;;;23.53;13.67;;;;;;;5.70;68.67;96392.69;5094280;28;20992;-38
2022/03/03 11:00:25;;;;;;;24.03;13.80;;;;;;;5.60;69.33;96397.63;5094390;28;20428;-38
2022/03/03 11:02:53;;;;;;;24.40;12.40;;;;;;;5.49;70.21;96399.13;5094285;28;20450;-38
2022/03/03 11:05:23;;;;;;;24.77;12.27;;;;;;;5.36;70.35;96391.31;5094206;28;20439;-38
2022/03/03 11:07:52;;;;;;;24.10;11.73;;;;;;;5.26;71.41;96399.66;5094516;28;20451;-38
2022/03/03 11:10:22;;;;;;;24.57;14.23;;;;;;;5.22;72.33;96398.47;5094200;28;20447;-38
2022/03/03 11:12:51;;;;;;;20.53;12.87;;;;;;;5.07;71.57;96390.84;5093923;28;20447;-38
2022/03/03 11:15:20;;;;;;;53.97;22.37;;;;;;;5.08;72.80;96394.31;5094015;28;20489;-37
2022/03/03 11:17:49;;;;;;;39.87;19.13;;;;;;;5.08;73.04;96386.44;5092274;28;20486;-39
2022/03/03 11:20:18;;;;;;;31.53;13.93;;;;;;;5.07;71.67;96376.91;5073667;28;20448;-37
2022/03/03 11:22:46;;;;;;;21.50;11.63;;;;;;;5.05;70.45;96385.00;5073641;28;20447;-37
2022/03/03 11:25:17;;;;;;;31.23;18.30;;;;;;;5.03;71.34;96386.22;5073728;28;20446;-37
2022/03/03 11:27:45;;;;;;;25.23;14.23;;;;;;;4.84;70.77;96351.13;5073617;28;20447;-36
2022/03/03 11:30:20;;;;;;;24.90;13.90;;;;;;;5.07;70.56;96385.59;5073552;28;20447;-37
2022/03/03 11:33:08;;;;;;;33.30;16.37;;;;;;;5.07;70.43;96382.16;5073569;28;20430;-37